Terminal Aerodrome Forecast
Issued by NWS

Home | Current Version | Previous Version | Text Only | Print | Product List | Glossary On
Versions: 1 2 3 4 5 6 7 8 9 10 11 12 13 14 15 16 17
000
FTUS43 KAPX 191100
TAFPLN
TAF
KPLN 191120Z 1912/2012 14004KT P6SM OVC024
     FM191500 17010KT P6SM SCT030 BKN250
     FM191900 18012G20KT P6SM BKN250
     FM200100 17012KT P6SM BKN120 WS008/18030KT
     FM200400 17012KT 6SM -SHRA OVC050 WS008/18030KT=

USA.gov is the U.S. government's official web portal to all federal, state and local government web resources and services.